Time;durP1;ratioP1;P1;durP2;ratioP2;P2;SDS_P1;SDS_P2;PMS_P1;PMS_P2;Temp;Humidity;BMP_temperature;BMP_pressure;BME280_temperature;BME280_humidity;BME280_pressure;Samples;Min_cycle;Max_cycle;Signal;HPM_P1;HPM_P2
2022/03/28 00:01:47;;;;;;;8.90;6.10;;;7.50;99.90;;;;;;5073789;28;20484;-67
2022/03/28 00:04:13;;;;;;;9.33;6.10;;;7.60;99.90;;;;;;5072879;28;20165;-67
2022/03/28 00:06:39;;;;;;;13.53;6.40;;;7.60;99.90;;;;;;5073132;28;20188;-67
2022/03/28 00:09:05;;;;;;;8.70;5.97;;;7.40;99.90;;;;;;5075035;28;20174;-66
2022/03/28 00:11:32;;;;;;;10.83;5.53;;;7.50;99.90;;;;;;5076291;28;20193;-66
2022/03/28 00:13:58;;;;;;;10.93;5.83;;;7.40;99.90;;;;;;5076602;28;20175;-66
2022/03/28 00:16:23;;;;;;;10.03;6.53;;;7.40;99.90;;;;;;5076478;28;20621;-66
2022/03/28 00:18:49;;;;;;;10.50;6.20;;;7.40;99.90;;;;;;5076764;28;20168;-65
2022/03/28 00:21:15;;;;;;;10.93;6.77;;;7.30;99.90;;;;;;5058695;28;20202;-67
2022/03/28 00:23:41;;;;;;;11.50;5.43;;;7.30;99.90;;;;;;5076070;28;20157;-66
2022/03/28 00:26:06;;;;;;;10.23;5.77;;;7.20;99.90;;;;;;5076047;28;20189;-66
2022/03/28 00:28:32;;;;;;;11.27;5.90;;;7.10;99.90;;;;;;5076297;28;20495;-66
2022/03/28 00:30:58;;;;;;;10.23;6.30;;;7.10;99.90;;;;;;5058513;28;20200;-65
2022/03/28 00:33:23;;;;;;;11.00;6.17;;;7.10;99.90;;;;;;5075818;28;20181;-66
2022/03/28 00:35:49;;;;;;;12.70;6.40;;;7.00;99.90;;;;;;5076196;28;20160;-66
2022/03/28 00:38:15;;;;;;;10.23;6.30;;;7.10;99.90;;;;;;5076539;28;20168;-68
2022/03/28 00:40:40;;;;;;;9.23;5.67;;;7.00;99.90;;;;;;5076305;28;20643;-67
2022/03/28 00:43:08;;;;;;;11.23;6.30;;;6.90;99.90;;;;;;5076017;28;20173;-66
2022/03/28 00:45:38;;;;;;;9.50;6.13;;;7.00;99.90;;;;;;5075765;28;20259;-66
2022/03/28 00:48:05;;;;;;;8.00;5.53;;;6.90;99.90;;;;;;5075844;28;20183;-66
2022/03/28 00:50:32;;;;;;;8.73;5.57;;;6.90;99.90;;;;;;5075815;28;20196;-66
2022/03/28 00:52:59;;;;;;;10.00;5.47;;;6.90;99.90;;;;;;5076468;28;20231;-66
2022/03/28 00:55:25;;;;;;;9.87;6.03;;;6.90;99.90;;;;;;5075550;28;20167;-67
2022/03/28 00:57:51;;;;;;;11.03;6.47;;;6.80;99.90;;;;;;5075476;28;20164;-68
2022/03/28 01:00:19;;;;;;;10.73;6.07;;;6.80;99.90;;;;;;5075693;28;20620;-65
2022/03/28 01:02:46;;;;;;;11.13;5.90;;;6.70;99.90;;;;;;5075396;28;20565;-66
2022/03/28 01:05:12;;;;;;;10.60;5.87;;;6.70;99.90;;;;;;5075907;28;20170;-66
2022/03/28 01:07:40;;;;;;;11.80;5.93;;;6.60;99.90;;;;;;5075463;28;20219;-66
2022/03/28 01:10:09;;;;;;;10.47;6.17;;;6.60;99.90;;;;;;5075141;28;20608;-67
2022/03/28 01:12:35;;;;;;;9.10;5.33;;;6.50;99.90;;;;;;5074905;28;20536;-65
2022/03/28 01:15:01;;;;;;;7.73;5.47;;;6.50;99.90;;;;;;5075209;28;20293;-65
2022/03/28 01:20:11;;;;;;;11.03;7.10;;;6.50;99.90;;;;;;5074055;28;20159;-64
2022/03/28 01:22:37;;;;;;;9.63;5.83;;;6.50;99.90;;;;;;5075456;28;20182;-65
2022/03/28 01:25:06;;;;;;;8.67;4.90;;;6.40;99.90;;;;;;5074969;28;20164;-65
2022/03/28 01:27:32;;;;;;;8.00;5.20;;;6.30;99.90;;;;;;5075203;28;20168;-65
2022/03/28 01:29:58;;;;;;;7.83;5.80;;;6.40;99.90;;;;;;5075068;28;20623;-66
2022/03/28 01:32:24;;;;;;;10.80;6.17;;;6.30;99.90;;;;;;5074833;28;20183;-67
2022/03/28 01:34:49;;;;;;;14.00;7.60;;;6.10;99.90;;;;;;5057728;28;20179;-65
2022/03/28 01:37:15;;;;;;;10.07;6.03;;;6.20;99.90;;;;;;5075625;28;20210;-66
2022/03/28 01:39:40;;;;;;;10.80;5.50;;;6.10;99.90;;;;;;5078168;28;20176;-67
2022/03/28 01:42:06;;;;;;;8.50;5.43;;;6.10;99.90;;;;;;5080968;28;20183;-65
2022/03/28 01:44:32;;;;;;;11.30;5.73;;;6.20;99.90;;;;;;5063330;28;20176;-66
2022/03/28 01:46:58;;;;;;;12.60;6.90;;;6.10;99.90;;;;;;5063100;28;20188;-65
2022/03/28 01:49:24;;;;;;;12.77;7.67;;;6.10;99.90;;;;;;5082643;28;20219;-65
2022/03/28 01:51:50;;;;;;;10.10;6.13;;;6.10;99.90;;;;;;5084948;28;20168;-65
2022/03/28 01:54:16;;;;;;;12.03;7.17;;;6.20;99.90;;;;;;5076758;28;20224;-65
2022/03/28 01:56:42;;;;;;;10.30;7.20;;;6.10;99.90;;;;;;5074895;28;20576;-66
2022/03/28 01:59:08;;;;;;;12.37;7.03;;;6.00;99.90;;;;;;5074340;28;20167;-65
2022/03/28 02:01:35;;;;;;;8.50;5.77;;;6.00;99.90;;;;;;5074170;28;20204;-65
2022/03/28 02:04:01;;;;;;;10.50;5.33;;;6.10;99.90;;;;;;5074007;28;20193;-66
2022/03/28 02:06:27;;;;;;;8.20;5.20;;;6.10;99.90;;;;;;5073989;28;20167;-67
2022/03/28 02:08:53;;;;;;;9.53;5.00;;;6.00;99.90;;;;;;5074326;28;20472;-66
2022/03/28 02:11:20;;;;;;;8.67;5.00;;;5.90;99.90;;;;;;5074209;28;20588;-66
2022/03/28 02:13:46;;;;;;;9.80;6.33;;;5.90;99.90;;;;;;5074330;28;20163;-66
2022/03/28 02:16:11;;;;;;;11.83;7.63;;;5.90;99.90;;;;;;5074903;28;20169;-67
2022/03/28 02:18:38;;;;;;;12.20;7.40;;;5.90;99.90;;;;;;5074345;28;20159;-68
2022/03/28 02:21:04;;;;;;;11.87;7.23;;;5.80;99.90;;;;;;5074169;28;20159;-64
2022/03/28 02:23:30;;;;;;;11.30;6.90;;;5.80;99.90;;;;;;5073925;28;20166;-66
2022/03/28 02:25:56;;;;;;;9.93;7.20;;;5.80;99.90;;;;;;5074233;28;20524;-65
2022/03/28 02:28:22;;;;;;;16.90;6.97;;;5.80;99.90;;;;;;5074015;28;20594;-66
2022/03/28 02:30:48;;;;;;;10.00;7.20;;;5.80;99.90;;;;;;5073432;28;20197;-65
2022/03/28 02:33:13;;;;;;;10.60;6.80;;;5.70;99.90;;;;;;5073582;28;20570;-67
2022/03/28 02:35:40;;;;;;;11.10;7.17;;;5.70;99.90;;;;;;5073624;28;20171;-65
2022/03/28 02:38:07;;;;;;;10.50;6.03;;;5.70;99.90;;;;;;5074019;28;20611;-65
2022/03/28 02:40:33;;;;;;;10.67;7.33;;;5.60;99.90;;;;;;5073737;28;20169;-65
2022/03/28 02:43:00;;;;;;;11.10;7.27;;;5.70;99.90;;;;;;5073629;28;20262;-66
2022/03/28 02:45:27;;;;;;;10.20;5.00;;;5.60;99.90;;;;;;5089162;28;20172;-67
2022/03/28 02:47:52;;;;;;;9.47;5.30;;;5.60;99.90;;;;;;5073723;28;20561;-65
2022/03/28 02:50:18;;;;;;;9.90;6.53;;;5.60;99.90;;;;;;5073514;28;20195;-66
2022/03/28 02:52:44;;;;;;;10.50;7.50;;;5.50;99.90;;;;;;5073237;28;20225;-65
2022/03/28 02:55:10;;;;;;;13.37;7.77;;;5.40;99.90;;;;;;5073491;28;20591;-65
2022/03/28 02:57:37;;;;;;;13.40;6.97;;;5.30;99.90;;;;;;5073934;28;20164;-65
2022/03/28 03:00:07;;;;;;;10.67;7.00;;;5.30;99.90;;;;;;5073171;28;20163;-65
2022/03/28 03:02:38;;;;;;;9.57;7.50;;;5.30;99.90;;;;;;5073429;28;20161;-67
2022/03/28 03:05:05;;;;;;;14.07;7.53;;;5.40;99.90;;;;;;5055208;28;20179;-66
2022/03/28 03:07:30;;;;;;;10.63;6.97;;;5.30;99.90;;;;;;5072818;28;20567;-66
2022/03/28 03:09:56;;;;;;;12.07;7.30;;;5.30;99.90;;;;;;5073149;28;20250;-65
2022/03/28 03:12:21;;;;;;;10.87;7.20;;;5.30;99.90;;;;;;5072915;28;20159;-66
2022/03/28 03:14:47;;;;;;;14.57;8.27;;;5.30;99.90;;;;;;5073107;28;20611;-64
2022/03/28 03:17:13;;;;;;;12.03;7.23;;;5.30;99.90;;;;;;5073115;28;20170;-64
2022/03/28 03:19:40;;;;;;;12.53;6.83;;;5.30;99.90;;;;;;5073826;28;20214;-69
2022/03/28 03:22:06;;;;;;;11.73;7.33;;;5.20;99.90;;;;;;5074372;28;20259;-66
2022/03/28 03:24:32;;;;;;;11.70;6.77;;;5.20;99.90;;;;;;5075795;28;20572;-67
2022/03/28 03:26:58;;;;;;;11.67;6.63;;;5.30;99.90;;;;;;5077897;28;20164;-66
2022/03/28 03:29:24;;;;;;;12.63;6.73;;;5.30;99.90;;;;;;5059095;28;20190;-65
2022/03/28 03:31:50;;;;;;;11.23;7.03;;;5.30;99.90;;;;;;5073965;28;20176;-65
2022/03/28 03:34:15;;;;;;;13.50;6.70;;;5.30;99.90;;;;;;5073201;28;20185;-65
2022/03/28 03:36:41;;;;;;;10.17;6.33;;;5.30;99.90;;;;;;5073385;28;20257;-66
2022/03/28 03:39:07;;;;;;;7.03;5.23;;;5.30;99.90;;;;;;5073209;28;20201;-66
2022/03/28 03:41:32;;;;;;;11.93;7.00;;;5.10;99.90;;;;;;5073450;28;20172;-66
2022/03/28 03:43:58;;;;;;;11.83;7.20;;;5.10;99.90;;;;;;5074850;28;20490;-65
2022/03/28 03:46:24;;;;;;;10.37;5.80;;;5.10;99.90;;;;;;5077179;28;20173;-65
2022/03/28 03:48:49;;;;;;;9.93;6.77;;;5.10;99.90;;;;;;5076928;28;20157;-66
2022/03/28 03:51:15;;;;;;;9.13;6.10;;;5.20;99.90;;;;;;5077452;28;20253;-66
2022/03/28 03:53:41;;;;;;;9.43;6.87;;;5.20;99.90;;;;;;5082022;28;20234;-64
2022/03/28 03:56:07;;;;;;;10.97;6.77;;;5.20;99.90;;;;;;5083178;28;20197;-65
2022/03/28 03:58:33;;;;;;;13.60;7.53;;;5.20;99.90;;;;;;5082676;28;20616;-65
2022/03/28 04:00:58;;;;;;;12.10;7.93;;;5.10;99.90;;;;;;5080514;28;20260;-66
2022/03/28 04:03:24;;;;;;;10.00;6.53;;;5.10;99.90;;;;;;5076301;28;20616;-66
2022/03/28 04:05:50;;;;;;;12.90;6.90;;;5.00;99.90;;;;;;5076776;28;20600;-66
2022/03/28 04:08:15;;;;;;;11.47;7.87;;;5.00;99.90;;;;;;5076405;28;20170;-65
2022/03/28 04:10:42;;;;;;;14.20;8.20;;;5.00;99.90;;;;;;5076746;28;20203;-66
2022/03/28 04:13:10;;;;;;;11.40;7.03;;;5.00;99.90;;;;;;5076866;28;20190;-66
2022/03/28 04:15:35;;;;;;;13.17;6.80;;;5.10;99.90;;;;;;5076712;28;20159;-65
2022/03/28 04:18:01;;;;;;;9.70;7.03;;;5.10;99.90;;;;;;5076438;28;20168;-67
2022/03/28 04:20:27;;;;;;;14.83;7.40;;;5.00;99.90;;;;;;5076380;28;20627;-65
2022/03/28 04:22:53;;;;;;;10.30;6.90;;;5.00;99.90;;;;;;5076542;28;20290;-66
2022/03/28 04:25:19;;;;;;;14.60;6.90;;;4.90;99.90;;;;;;5076062;28;20239;-66
2022/03/28 04:27:45;;;;;;;11.27;7.33;;;4.90;99.90;;;;;;5058520;28;20226;-65
2022/03/28 04:30:12;;;;;;;12.07;7.53;;;4.70;99.90;;;;;;5076545;28;20207;-67
2022/03/28 04:32:39;;;;;;;13.70;7.90;;;4.80;99.90;;;;;;5076460;28;20659;-65
2022/03/28 04:35:06;;;;;;;16.07;7.83;;;4.70;99.90;;;;;;5076416;28;20162;-66
2022/03/28 04:37:33;;;;;;;10.77;7.30;;;4.80;99.90;;;;;;5076590;28;20179;-65
2022/03/28 04:39:59;;;;;;;10.03;6.73;;;4.80;99.90;;;;;;5076036;28;20171;-65
2022/03/28 04:42:24;;;;;;;12.63;7.83;;;4.80;99.90;;;;;;5057446;28;20187;-67
2022/03/28 04:44:50;;;;;;;12.70;7.93;;;4.70;99.90;;;;;;5075613;28;20162;-65
2022/03/28 04:47:16;;;;;;;13.13;8.00;;;4.60;99.90;;;;;;5075716;28;20644;-65
2022/03/28 04:49:41;;;;;;;14.13;7.57;;;4.60;99.90;;;;;;5075520;28;20163;-67
2022/03/28 04:52:07;;;;;;;11.13;7.33;;;4.60;99.90;;;;;;5075322;28;20172;-66
2022/03/28 04:54:33;;;;;;;14.53;8.20;;;4.70;99.90;;;;;;5074743;28;20223;-66
2022/03/28 04:56:59;;;;;;;13.53;7.70;;;4.60;99.90;;;;;;5075546;28;20197;-66
2022/03/28 04:59:24;;;;;;;21.23;7.60;;;4.60;99.90;;;;;;5076034;28;20161;-66
2022/03/28 05:01:50;;;;;;;13.47;7.57;;;4.70;99.90;;;;;;5057738;28;20494;-67
2022/03/28 05:04:16;;;;;;;12.80;7.70;;;4.60;99.90;;;;;;5075640;28;20501;-66
2022/03/28 05:06:41;;;;;;;10.80;6.67;;;4.70;99.90;;;;;;5077512;28;20177;-67
2022/03/28 05:09:07;;;;;;;11.87;6.67;;;4.70;99.90;;;;;;5075759;28;20218;-67
2022/03/28 05:11:33;;;;;;;12.33;7.10;;;4.60;99.90;;;;;;5086728;28;20200;-66
2022/03/28 05:14:00;;;;;;;11.77;7.00;;;4.50;99.90;;;;;;5087754;28;20162;-65
2022/03/28 05:16:26;;;;;;;11.43;7.73;;;4.60;99.90;;;;;;5084981;28;20197;-66
2022/03/28 05:18:52;;;;;;;10.70;7.00;;;4.60;99.90;;;;;;5082601;28;20163;-66
2022/03/28 05:21:17;;;;;;;13.23;7.27;;;4.60;99.90;;;;;;5057727;28;20573;-66
2022/03/28 05:23:43;;;;;;;11.57;7.37;;;4.80;99.90;;;;;;5075565;28;20166;-66
2022/03/28 05:26:09;;;;;;;12.33;6.90;;;4.60;99.90;;;;;;5075205;28;20195;-66
2022/03/28 05:28:35;;;;;;;10.50;7.07;;;4.60;99.90;;;;;;5075419;28;20196;-65
2022/03/28 05:31:00;;;;;;;11.73;7.97;;;4.60;99.90;;;;;;5075241;28;20244;-66
2022/03/28 05:33:26;;;;;;;12.00;7.30;;;4.50;99.90;;;;;;5056861;28;20641;-65
2022/03/28 05:35:54;;;;;;;15.53;8.00;;;4.50;99.90;;;;;;5075025;28;20179;-67
2022/03/28 05:38:19;;;;;;;12.83;7.87;;;4.50;99.90;;;;;;5074518;28;20166;-65
2022/03/28 05:40:45;;;;;;;11.07;7.60;;;4.50;99.90;;;;;;5074648;28;20159;-67
2022/03/28 05:43:11;;;;;;;13.60;7.40;;;4.60;99.90;;;;;;5074332;28;20160;-67
2022/03/28 05:45:36;;;;;;;14.10;7.73;;;4.70;99.90;;;;;;5074489;28;20550;-67
2022/03/28 05:48:03;;;;;;;11.93;7.50;;;4.80;99.90;;;;;;5074577;28;20505;-66
2022/03/28 05:50:29;;;;;;;18.50;7.60;;;4.80;99.90;;;;;;5074319;28;20610;-66
2022/03/28 05:52:54;;;;;;;12.33;7.80;;;4.90;99.90;;;;;;5074270;28;20259;-65
2022/03/28 05:55:21;;;;;;;15.53;7.30;;;5.10;99.90;;;;;;5074716;28;20249;-66
2022/03/28 05:57:46;;;;;;;14.27;7.83;;;5.00;99.90;;;;;;5073967;28;20160;-66
2022/03/28 06:00:14;;;;;;;10.73;7.03;;;5.10;99.90;;;;;;5090546;28;20181;-66
2022/03/28 06:02:41;;;;;;;12.27;7.17;;;5.10;99.90;;;;;;5075349;28;20162;-65
2022/03/28 06:05:07;;;;;;;13.13;7.50;;;5.20;99.90;;;;;;5061057;28;20265;-67
2022/03/28 06:07:33;;;;;;;12.10;7.53;;;5.30;99.90;;;;;;5079529;28;20200;-64
2022/03/28 06:09:59;;;;;;;13.13;7.57;;;5.20;99.90;;;;;;5079924;28;20198;-64
2022/03/28 06:12:24;;;;;;;13.30;7.60;;;5.30;99.90;;;;;;5076932;28;20158;-65
2022/03/28 06:14:50;;;;;;;13.57;8.33;;;5.20;99.90;;;;;;5074440;28;20166;-65
2022/03/28 06:17:20;;;;;;;10.90;7.33;;;5.30;99.90;;;;;;5074248;28;20159;-66
2022/03/28 06:19:46;;;;;;;9.00;5.70;;;5.50;99.90;;;;;;5074070;28;20164;-64
2022/03/28 06:22:11;;;;;;;9.53;6.60;;;5.60;99.90;;;;;;5073953;28;20161;-65
2022/03/28 06:24:37;;;;;;;7.97;5.50;;;5.60;99.90;;;;;;5056935;28;20182;-65
2022/03/28 06:27:03;;;;;;;11.37;6.43;;;5.70;99.90;;;;;;5074759;28;20206;-66
2022/03/28 06:29:28;;;;;;;9.80;5.40;;;5.70;99.90;;;;;;5075351;28;20197;-65
2022/03/28 06:31:54;;;;;;;12.73;7.13;;;5.90;99.90;;;;;;5057945;28;20340;-65
2022/03/28 06:34:20;;;;;;;11.77;5.90;;;6.00;99.90;;;;;;5074131;28;20555;-65
2022/03/28 06:36:45;;;;;;;9.93;6.07;;;6.10;99.90;;;;;;5074463;28;20580;-66
2022/03/28 06:39:11;;;;;;;11.00;6.47;;;6.30;99.90;;;;;;5074388;28;20654;-67
2022/03/28 06:41:38;;;;;;;12.17;7.30;;;6.30;99.90;;;;;;5074141;28;20183;-66
2022/03/28 06:44:05;;;;;;;13.23;7.77;;;6.40;99.90;;;;;;5057099;28;20605;-64
2022/03/28 06:46:31;;;;;;;9.97;6.03;;;6.60;99.90;;;;;;5090277;28;20177;-65
2022/03/28 06:48:57;;;;;;;11.63;6.10;;;6.70;99.90;;;;;;5074342;28;20242;-65
2022/03/28 06:51:23;;;;;;;11.00;6.07;;;6.80;99.90;;;;;;5073683;28;20342;-65
2022/03/28 06:53:49;;;;;;;10.30;6.20;;;6.80;99.90;;;;;;5073292;28;20318;-66
2022/03/28 06:56:18;;;;;;;9.80;5.83;;;7.00;99.90;;;;;;5056198;28;20179;-65
2022/03/28 06:58:44;;;;;;;11.70;5.53;;;7.10;99.90;;;;;;5073443;28;20164;-65
2022/03/28 07:01:10;;;;;;;8.87;5.63;;;7.20;99.90;;;;;;5073364;28;20181;-65
2022/03/28 07:03:37;;;;;;;13.23;6.73;;;7.20;99.90;;;;;;5055915;28;20235;-67
2022/03/28 07:06:03;;;;;;;8.93;5.63;;;7.40;99.90;;;;;;5073377;28;20170;-65
2022/03/28 07:08:29;;;;;;;10.50;5.97;;;7.50;99.90;;;;;;5073566;28;20158;-64
2022/03/28 07:10:58;;;;;;;7.53;4.97;;;7.60;99.90;;;;;;5073282;28;20677;-66
2022/03/28 07:13:23;;;;;;;10.43;6.43;;;7.80;99.90;;;;;;5073143;28;20155;-66
2022/03/28 07:15:49;;;;;;;12.73;6.17;;;8.00;99.90;;;;;;5073045;28;20195;-67
2022/03/28 07:18:15;;;;;;;10.03;6.70;;;8.10;99.90;;;;;;5072572;28;20198;-66
2022/03/28 07:20:43;;;;;;;8.57;5.83;;;8.40;99.90;;;;;;5073315;28;20188;-65
2022/03/28 07:23:09;;;;;;;18.83;9.00;;;8.40;99.90;;;;;;5055628;28;20232;-65
2022/03/28 07:25:36;;;;;;;12.60;7.93;;;8.50;99.90;;;;;;5073333;28;20183;-65
2022/03/28 07:28:12;;;;;;;18.17;6.63;;;8.70;99.90;;;;;;5073385;28;20163;-64
2022/03/28 07:30:39;;;;;;;8.30;5.93;;;8.70;99.90;;;;;;5089206;28;20210;-65
2022/03/28 07:33:06;;;;;;;9.13;6.13;;;8.80;99.90;;;;;;5073066;28;20686;-66
2022/03/28 07:35:35;;;;;;;10.77;6.83;;;9.00;99.90;;;;;;5073804;28;20163;-64
2022/03/28 07:38:01;;;;;;;9.80;6.43;;;9.10;99.90;;;;;;5056258;28;20217;-65
2022/03/28 07:40:27;;;;;;;9.73;6.90;;;9.20;99.90;;;;;;5089643;28;20594;-66
2022/03/28 07:42:53;;;;;;;9.70;6.83;;;9.40;99.90;;;;;;5075115;28;20195;-65
2022/03/28 07:45:23;;;;;;;10.87;6.73;;;9.60;99.90;;;;;;5075189;28;20580;-67
2022/03/28 07:47:49;;;;;;;12.23;6.80;;;9.70;99.90;;;;;;5074334;28;20164;-67
2022/03/28 07:50:15;;;;;;;11.87;6.63;;;9.90;99.90;;;;;;5077850;28;20623;-65
2022/03/28 07:52:41;;;;;;;10.50;7.13;;;10.00;99.90;;;;;;5080651;28;20184;-65
2022/03/28 07:55:08;;;;;;;11.43;6.70;;;10.00;99.90;;;;;;5080421;28;20159;-65
2022/03/28 07:57:35;;;;;;;10.57;6.77;;;10.10;99.90;;;;;;5079448;28;20262;-66
2022/03/28 08:00:01;;;;;;;11.83;7.10;;;10.30;99.90;;;;;;5077860;28;20199;-66
2022/03/28 08:02:27;;;;;;;10.63;7.03;;;10.30;99.90;;;;;;5079070;28;20250;-67
2022/03/28 08:04:53;;;;;;;10.43;6.97;;;10.60;99.90;;;;;;5070615;28;20203;-66
2022/03/28 08:07:18;;;;;;;9.33;6.87;;;10.50;99.90;;;;;;5072392;28;20537;-65
2022/03/28 08:09:44;;;;;;;10.50;6.73;;;10.60;99.90;;;;;;5073095;28;20164;-65
2022/03/28 08:12:10;;;;;;;13.27;7.27;;;10.70;99.90;;;;;;5075483;28;20156;-65
2022/03/28 08:14:37;;;;;;;12.50;7.53;;;10.90;99.90;;;;;;5076735;28;20150;-65
2022/03/28 08:17:04;;;;;;;10.97;7.73;;;11.00;99.90;;;;;;5075913;28;20449;-65
2022/03/28 08:19:30;;;;;;;12.97;7.60;;;11.30;99.90;;;;;;5074891;28;20198;-65
2022/03/28 08:21:56;;;;;;;11.17;7.10;;;11.40;99.90;;;;;;5072818;28;20243;-66
2022/03/28 08:24:21;;;;;;;11.63;6.80;;;11.40;99.90;;;;;;5072953;28;20164;-65
2022/03/28 08:26:49;;;;;;;11.00;7.43;;;11.50;99.90;;;;;;5072693;28;20182;-66
2022/03/28 08:29:15;;;;;;;20.80;7.77;;;11.80;99.90;;;;;;5073569;28;20167;-65
2022/03/28 08:31:41;;;;;;;13.10;8.13;;;11.90;99.90;;;;;;5076417;28;20525;-66
2022/03/28 08:34:07;;;;;;;11.80;7.60;;;12.00;99.90;;;;;;5076435;28;20171;-66
2022/03/28 08:36:33;;;;;;;15.90;8.13;;;12.10;99.90;;;;;;5076427;28;20447;-65
2022/03/28 08:38:59;;;;;;;15.90;8.70;;;12.20;99.90;;;;;;5075771;28;20170;-67
2022/03/28 08:41:26;;;;;;;13.23;8.17;;;12.40;99.90;;;;;;5077108;28;20248;-65
2022/03/28 08:43:52;;;;;;;13.20;7.93;;;12.50;99.90;;;;;;5079284;28;20163;-68
2022/03/28 08:46:18;;;;;;;13.77;8.43;;;12.60;99.90;;;;;;5062782;28;20183;-66
2022/03/28 08:48:44;;;;;;;10.97;7.83;;;12.80;99.90;;;;;;5082601;28;20207;-66
2022/03/28 08:51:12;;;;;;;14.43;9.10;;;13.10;99.90;;;;;;5081475;28;20230;-66
2022/03/28 08:53:38;;;;;;;14.43;8.17;;;13.20;99.90;;;;;;5080531;28;20254;-67
2022/03/28 08:56:07;;;;;;;14.53;9.03;;;13.20;99.90;;;;;;5078647;28;20196;-66
2022/03/28 08:58:33;;;;;;;14.30;9.33;;;13.50;99.90;;;;;;5078883;28;20160;-68
2022/03/28 09:01:00;;;;;;;11.87;8.87;;;13.30;99.90;;;;;;5082522;28;20172;-67
2022/03/28 09:03:37;;;;;;;12.50;9.63;;;13.50;99.90;;;;;;5081876;28;20164;-67
2022/03/28 09:06:38;;;;;;;19.97;9.63;;;13.60;99.90;;;;;;5083331;28;20171;-65
2022/03/28 09:09:14;;;;;;;14.03;8.97;;;13.80;99.90;;;;;;5082157;28;20177;-66
2022/03/28 09:11:42;;;;;;;14.57;9.73;;;14.10;99.90;;;;;;5082409;28;20217;-66
2022/03/28 09:14:14;;;;;;;13.60;9.27;;;14.30;99.90;;;;;;5081993;28;20159;-67
2022/03/28 09:16:39;;;;;;;14.53;10.10;;;14.40;99.90;;;;;;5080132;28;20168;-66
2022/03/28 09:19:14;;;;;;;16.07;10.83;;;14.50;99.90;;;;;;5078328;28;20239;-66
2022/03/28 09:21:50;;;;;;;18.27;11.27;;;14.60;99.90;;;;;;5081427;28;20170;-65
2022/03/28 09:24:16;;;;;;;22.37;12.13;;;14.70;99.90;;;;;;5081550;28;20163;-68
2022/03/28 09:26:41;;;;;;;51.70;28.17;;;14.90;99.90;;;;;;5080993;28;20244;-68
2022/03/28 09:29:07;;;;;;;20.37;12.97;;;15.20;99.90;;;;;;5058843;28;20588;-67
2022/03/28 09:31:39;;;;;;;14.97;10.77;;;15.40;99.90;;;;;;5075260;28;20191;-65
2022/03/28 09:34:13;;;;;;;14.90;10.80;;;15.40;99.90;;;;;;5057095;28;20184;-67
2022/03/28 09:36:52;;;;;;;18.30;10.97;;;15.30;99.90;;;;;;5074788;28;20575;-66
2022/03/28 09:39:21;;;;;;;14.63;10.60;;;15.40;99.90;;;;;;5057011;28;20175;-65
2022/03/28 09:41:59;;;;;;;17.00;11.50;;;15.50;99.90;;;;;;5073875;28;20229;-67
2022/03/28 09:44:42;;;;;;;14.63;10.73;;;15.60;99.90;;;;;;5074632;28;20603;-66
2022/03/28 09:47:13;;;;;;;15.57;10.70;;;15.70;99.90;;;;;;5075050;28;20209;-65
2022/03/28 09:49:44;;;;;;;15.43;9.97;;;15.90;99.90;;;;;;5074452;28;20164;-66
2022/03/28 09:52:12;;;;;;;17.03;11.20;;;15.90;99.90;;;;;;5073972;28;20152;-67
2022/03/28 09:54:59;;;;;;;16.30;11.10;;;16.00;99.90;;;;;;5057552;28;20669;-67
2022/03/28 09:57:32;;;;;;;16.23;11.63;;;16.10;99.90;;;;;;5054888;28;20172;-66
2022/03/28 10:00:10;;;;;;;14.10;10.60;;;16.30;99.90;;;;;;5037231;28;20579;-67
2022/03/28 10:02:36;;;;;;;15.50;10.73;;;16.40;99.90;;;;;;5036534;28;20183;-67
2022/03/28 10:05:03;;;;;;;18.73;11.83;;;16.60;99.90;;;;;;5054496;28;20168;-64
2022/03/28 10:07:31;;;;;;;17.80;11.45;;;16.40;99.80;;;;;;5054555;28;20184;-65
2022/03/28 10:09:57;;;;;;;20.67;14.07;;;16.30;99.90;;;;;;5053027;28;20260;-66
2022/03/28 10:12:23;;;;;;;19.30;12.35;;;16.60;99.90;;;;;;5036096;28;20175;-66
2022/03/28 10:14:54;;;;;;;13.73;10.40;;;16.80;99.40;;;;;;5054043;28;20164;-65
2022/03/28 10:17:19;;;;;;;16.55;11.88;;;16.90;98.10;;;;;;5054157;28;20168;-65
2022/03/28 10:19:46;;;;;;;17.20;11.75;;;17.20;98.00;;;;;;5055505;28;20256;-66
2022/03/28 10:22:21;;;;;;;18.00;11.63;;;17.20;97.50;;;;;;5055514;28;20171;-67
2022/03/28 10:24:49;;;;;;;17.02;11.45;;;17.20;97.60;;;;;;5055712;28;20213;-64
2022/03/28 10:27:15;;;;;;;14.20;10.93;;;17.10;98.10;;;;;;5055843;28;20171;-65
2022/03/28 10:29:43;;;;;;;17.90;11.75;;;17.00;98.00;;;;;;5054267;28;20209;-64
2022/03/28 10:32:19;;;;;;;15.23;11.20;;;17.30;98.10;;;;;;5053983;28;20179;-64
2022/03/28 10:34:48;;;;;;;13.80;10.95;;;17.20;97.50;;;;;;5056988;28;20172;-67
2022/03/28 10:37:24;;;;;;;16.83;11.38;;;17.10;98.30;;;;;;5061894;28;20195;-64
2022/03/28 10:39:50;;;;;;;13.13;9.73;;;17.30;98.10;;;;;;5062789;28;20164;-68
2022/03/28 10:42:24;;;;;;;14.13;10.00;;;17.40;97.70;;;;;;5059196;28;20255;-65
2022/03/28 10:45:02;;;;;;;14.50;10.00;;;17.80;96.60;;;;;;5059210;28;20164;-66
2022/03/28 10:47:58;;;;;;;11.88;8.45;;;17.80;94.00;;;;;;5054041;28;20175;-65
2022/03/28 10:50:42;;;;;;;11.93;8.23;;;17.80;92.10;;;;;;5053827;28;20350;-66
2022/03/28 10:53:19;;;;;;;11.25;8.38;;;17.80;90.70;;;;;;5060975;28;20215;-66
2022/03/28 10:55:48;;;;;;;14.48;9.68;;;17.80;89.60;;;;;;5074419;28;20175;-65
2022/03/28 10:58:24;;;;;;;9.73;7.82;;;17.70;90.20;;;;;;5056171;28;20203;-65
2022/03/28 11:01:08;;;;;;;12.35;8.07;;;17.70;89.00;;;;;;5074752;28;20185;-65
2022/03/28 11:03:52;;;;;;;11.65;8.70;;;18.00;86.60;;;;;;5075931;28;20178;-65
2022/03/28 11:06:21;;;;;;;12.18;9.27;;;18.20;88.10;;;;;;5076240;28;20160;-64
2022/03/28 11:09:00;;;;;;;14.02;9.27;;;18.20;88.50;;;;;;5075827;28;20167;-65
2022/03/28 11:11:31;;;;;;;13.23;9.45;;;18.00;90.10;;;;;;5056602;28;20529;-66
2022/03/28 11:14:10;;;;;;;13.88;10.13;;;17.80;90.00;;;;;;5072882;28;20162;-64
2022/03/28 11:16:52;;;;;;;12.90;9.57;;;17.80;91.30;;;;;;5073729;28;20568;-65
2022/03/28 11:19:35;;;;;;;17.30;10.35;;;17.80;91.90;;;;;;5073485;28;20592;-65
2022/03/28 11:22:03;;;;;;;14.52;9.68;;;17.80;91.60;;;;;;5073145;28;20159;-64
2022/03/28 11:24:51;;;;;;;13.13;10.10;;;17.70;91.40;;;;;;5073657;28;20179;-64
2022/03/28 11:27:18;;;;;;;14.70;9.95;;;17.90;91.40;;;;;;5073145;28;20191;-64
2022/03/28 11:29:45;;;;;;;104.13;64.18;;;18.00;90.90;;;;;;5074073;28;20251;-73
2022/03/28 11:32:18;;;;;;;11.52;8.35;;;18.20;91.00;;;;;;5074122;28;20198;-74
2022/03/28 11:34:54;;;;;;;12.57;7.88;;;18.40;85.20;;;;;;5056467;28;20535;-66
2022/03/28 11:37:23;;;;;;;10.20;7.15;;;18.30;82.80;;;;;;5074165;28;20183;-66
2022/03/28 11:39:59;;;;;;;12.98;8.05;;;18.50;79.00;;;;;;5073338;28;20544;-65
2022/03/28 11:42:30;;;;;;;12.55;8.35;;;18.30;80.30;;;;;;5073095;28;20228;-65
2022/03/28 11:44:57;;;;;;;12.75;9.43;;;18.20;82.20;;;;;;5089137;28;20233;-65
2022/03/28 11:47:23;;;;;;;9.75;7.50;;;18.50;80.80;;;;;;5073599;28;20156;-66
2022/03/28 11:49:58;;;;;;;10.77;7.25;;;18.50;77.70;;;;;;5055469;28;20252;-65
2022/03/28 11:52:27;;;;;;;10.07;6.70;;;18.60;73.90;;;;;;5073116;28;20164;-67
2022/03/28 11:54:55;;;;;;;12.20;8.30;;;18.90;72.50;;;;;;5072746;28;20257;-65
2022/03/28 12:00:19;;;;;;;11.75;7.50;;;18.30;71.70;;;;;;5073543;28;20233;-65
2022/03/28 12:02:48;;;;;;;9.63;7.18;;;18.40;73.10;;;;;;5074018;28;20576;-65
2022/03/28 12:05:43;;;;;;;9.55;7.13;;;18.10;72.80;;;;;;5077390;28;20248;-65
2022/03/28 12:08:14;;;;;;;11.45;7.63;;;18.50;71.60;;;;;;5079525;28;20191;-64
2022/03/28 12:10:47;;;;;;;16.45;7.65;;;18.70;70.80;;;;;;5079112;28;20219;-64
2022/03/28 12:13:12;;;;;;;10.55;7.65;;;18.60;70.50;;;;;;5078467;28;20621;-65
2022/03/28 12:15:43;;;;;;;11.75;8.27;;;18.70;70.50;;;;;;5077135;28;20179;-64
2022/03/28 12:18:10;;;;;;;10.63;7.57;;;18.60;70.30;;;;;;5076295;28;20156;-66
2022/03/28 12:20:38;;;;;;;11.73;8.13;;;18.70;70.40;;;;;;5076566;28;20167;-65
2022/03/28 12:23:06;;;;;;;12.75;7.55;;;18.60;69.30;;;;;;5075940;28;20643;-64
2022/03/28 12:25:35;;;;;;;10.77;7.85;;;18.50;67.40;;;;;;5076701;28;20243;-65
2022/03/28 12:28:04;;;;;;;9.77;7.00;;;18.60;66.00;;;;;;5077938;28;20171;-64
2022/03/28 12:30:51;;;;;;;12.85;8.38;;;18.60;65.50;;;;;;5079248;28;20214;-64
2022/03/28 12:33:18;;;;;;;10.68;7.80;;;18.70;65.40;;;;;;5078944;28;20633;-65
2022/03/28 12:36:05;;;;;;;15.82;8.70;;;18.90;64.70;;;;;;5060337;28;20217;-66
2022/03/28 12:38:32;;;;;;;13.70;8.73;;;18.80;66.50;;;;;;5068227;28;20195;-66
2022/03/28 12:41:08;;;;;;;13.43;7.80;;;18.80;67.60;;;;;;5077532;28;20185;-65
2022/03/28 12:43:35;;;;;;;15.43;9.88;;;19.10;67.90;;;;;;5096215;28;20233;-65
2022/03/28 12:46:06;;;;;;;12.27;9.18;;;18.90;68.30;;;;;;5095768;28;20556;-64
2022/03/28 12:48:43;;;;;;;16.13;9.60;;;19.00;67.70;;;;;;5096301;28;20166;-64
2022/03/28 12:51:10;;;;;;;17.83;10.10;;;18.90;69.00;;;;;;5095938;28;20293;-66
2022/03/28 12:53:37;;;;;;;16.65;11.10;;;19.10;70.00;;;;;;5095669;28;20218;-65